Time;durP1;ratioP1;P1;durP2;ratioP2;P2;SDS_P1;SDS_P2;PMS_P1;PMS_P2;Temp;Humidity;BMP_temperature;BMP_pressure;BME280_temperature;BME280_humidity;BME280_pressure;Samples;Min_cycle;Max_cycle;Signal;HPM_P1;HPM_P2
2021/01/28 00:02:18;;;;;;;105.77;39.63;;;;;;;;;;5033573;28;20686;-68
2021/01/28 00:05:03;;;;;;;107.20;38.27;;;;;;;;;;5033543;28;20643;-68
2021/01/28 00:07:48;;;;;;;116.13;41.20;;;;;;;;;;5032671;28;20695;-68
2021/01/28 00:10:32;;;;;;;111.87;40.30;;;;;;;;;;5031822;28;20352;-68
2021/01/28 00:13:16;;;;;;;121.77;41.13;;;;;;;;;;5032480;28;20256;-68
2021/01/28 00:16:01;;;;;;;108.33;40.00;;;;;;;;;;5032907;28;20204;-68
2021/01/28 00:18:46;;;;;;;130.60;42.00;;;;;;;;;;5033001;28;20209;-68
2021/01/28 00:21:31;;;;;;;139.23;42.77;;;;;;;;;;5033272;28;20217;-68
2021/01/28 00:24:15;;;;;;;142.50;41.87;;;;;;;;;;5032162;28;20267;-68
2021/01/28 00:27:00;;;;;;;119.33;40.07;;;;;;;;;;5032901;28;20248;-69
2021/01/28 00:29:45;;;;;;;100.07;37.40;;;;;;;;;;5033196;28;20351;-68
2021/01/28 00:32:29;;;;;;;124.27;42.10;;;;;;;;;;5032270;28;20204;-68
2021/01/28 00:35:15;;;;;;;113.47;38.67;;;;;;;;;;5033157;28;20596;-68
2021/01/28 00:38:00;;;;;;;109.70;39.40;;;;;;;;;;5030196;28;20262;-68
2021/01/28 00:40:45;;;;;;;135.33;41.70;;;;;;;;;;5031496;28;20228;-68
2021/01/28 00:43:29;;;;;;;126.23;40.87;;;;;;;;;;5032851;28;20284;-68
2021/01/28 00:46:14;;;;;;;144.33;42.87;;;;;;;;;;5032295;28;20277;-68
2021/01/28 00:48:58;;;;;;;145.50;43.23;;;;;;;;;;5032136;28;20615;-68
2021/01/28 00:51:44;;;;;;;113.03;38.83;;;;;;;;;;5031888;28;20256;-68
2021/01/28 00:54:28;;;;;;;114.17;37.33;;;;;;;;;;5032937;28;20231;-68
2021/01/28 00:57:12;;;;;;;129.70;40.97;;;;;;;;;;5032402;28;20730;-68
2021/01/28 00:59:57;;;;;;;161.82;53.58;;;;;;;;;;5031568;28;20414;-68
2021/01/28 01:02:42;;;;;;;156.90;44.33;;;;;;;;;;5032044;28;20260;-68
2021/01/28 01:05:29;;;;;;;113.47;39.60;;;;;;;;;;5031401;28;20209;-68
2021/01/28 01:08:15;;;;;;;111.67;38.37;;;;;;;;;;5031250;28;20209;-68
2021/01/28 01:11:01;;;;;;;126.67;39.13;;;;;;;;;;5031667;28;20513;-68
2021/01/28 01:13:46;;;;;;;109.77;38.07;;;;;;;;;;5032513;28;20198;-68
2021/01/28 01:16:30;;;;;;;127.70;40.80;;;;;;;;;;5015270;28;20616;-68
2021/01/28 01:19:15;;;;;;;114.30;37.83;;;;;;;;;;5019822;28;20572;-68
2021/01/28 01:21:59;;;;;;;97.20;35.50;;;;;;;;;;5031449;28;20292;-68
2021/01/28 01:24:45;;;;;;;103.30;35.73;;;;;;;;;;5029634;28;20775;-68
2021/01/28 01:27:29;;;;;;;139.87;40.73;;;;;;;;;;5031642;28;20212;-68
2021/01/28 01:30:14;;;;;;;120.00;40.23;;;;;;;;;;5031413;28;20227;-68
2021/01/28 01:32:59;;;;;;;133.23;39.80;;;;;;;;;;5030454;28;20263;-68
2021/01/28 01:35:43;;;;;;;122.57;40.50;;;;;;;;;;5030989;28;20236;-68
2021/01/28 01:38:28;;;;;;;160.27;43.30;;;;;;;;;;5032043;28;20213;-68
2021/01/28 01:41:13;;;;;;;119.87;38.40;;;;;;;;;;5031910;28;20213;-69
2021/01/28 01:43:58;;;;;;;194.80;44.90;;;;;;;;;;5031751;28;20220;-69
2021/01/28 01:46:43;;;;;;;134.17;40.87;;;;;;;;;;5031103;28;20724;-68
2021/01/28 01:49:27;;;;;;;135.43;40.43;;;;;;;;;;5031922;28;20230;-68
2021/01/28 01:52:12;;;;;;;133.77;40.67;;;;;;;;;;5030701;28;20703;-68
2021/01/28 01:54:57;;;;;;;172.40;42.27;;;;;;;;;;5030738;28;20210;-69
2021/01/28 01:57:42;;;;;;;147.57;42.93;;;;;;;;;;5031124;28;20225;-68
2021/01/28 02:00:26;;;;;;;239.13;51.23;;;;;;;;;;5029793;28;20241;-69
2021/01/28 02:03:12;;;;;;;148.07;42.97;;;;;;;;;;5031232;28;20232;-68
2021/01/28 02:06:00;;;;;;;191.67;48.33;;;;;;;;;;5031175;28;20204;-68
2021/01/28 02:08:46;;;;;;;303.57;55.07;;;;;;;;;;5011624;28;20260;-68
2021/01/28 02:11:30;;;;;;;213.33;48.07;;;;;;;;;;5022769;28;20256;-68
2021/01/28 02:14:17;;;;;;;344.80;58.80;;;;;;;;;;5030498;28;20252;-68
2021/01/28 02:17:03;;;;;;;444.10;61.50;;;;;;;;;;5030313;28;20676;-68
2021/01/28 02:19:58;;;;;;;505.50;67.13;;;;;;;;;;5031223;28;20275;-68
2021/01/28 02:22:48;;;;;;;416.93;60.63;;;;;;;;;;5030025;28;20749;-68
2021/01/28 02:25:35;;;;;;;496.37;65.40;;;;;;;;;;5030234;28;20248;-68
2021/01/28 02:28:20;;;;;;;736.43;71.97;;;;;;;;;;5031239;28;20580;-68
2021/01/28 02:31:06;;;;;;;825.40;75.97;;;;;;;;;;5030506;28;20214;-68
2021/01/28 02:33:52;;;;;;;1320.17;97.40;;;;;;;;;;5031120;28;20326;-68
2021/01/28 02:36:38;;;;;;;518.77;71.23;;;;;;;;;;5029782;28;20216;-68
2021/01/28 02:39:23;;;;;;;474.38;76.50;;;;;;;;;;5030749;28;20414;-68
2021/01/28 02:42:12;;;;;;;646.07;76.93;;;;;;;;;;5029718;28;20273;-69
2021/01/28 02:44:57;;;;;;;906.90;83.60;;;;;;;;;;5030815;28;20236;-68
2021/01/28 02:47:42;;;;;;;616.40;69.30;;;;;;;;;;5030486;28;20281;-68
2021/01/28 02:50:27;;;;;;;919.90;84.57;;;;;;;;;;5030817;28;20276;-68
2021/01/28 02:53:11;;;;;;;1025.77;92.47;;;;;;;;;;5029712;28;20343;-69
2021/01/28 02:55:56;;;;;;;611.83;72.10;;;;;;;;;;5029495;28;20341;-68
2021/01/28 02:58:41;;;;;;;301.60;58.90;;;;;;;;;;5030861;28;20293;-69
2021/01/28 03:01:25;;;;;;;715.90;78.77;;;;;;;;;;5031084;28;20680;-68
2021/01/28 03:04:10;;;;;;;538.57;68.90;;;;;;;;;;5030645;28;20920;-68
2021/01/28 03:06:54;;;;;;;672.90;72.57;;;;;;;;;;5029290;28;20719;-68
2021/01/28 03:09:39;;;;;;;800.17;84.70;;;;;;;;;;5029701;28;20307;-68
2021/01/28 03:12:24;;;;;;;629.87;65.63;;;;;;;;;;5030753;28;20775;-68
2021/01/28 03:15:10;;;;;;;984.63;89.00;;;;;;;;;;5030873;28;20567;-69
2021/01/28 03:17:55;;;;;;;702.30;81.10;;;;;;;;;;5030147;28;20198;-69
2021/01/28 03:20:40;;;;;;;975.63;86.57;;;;;;;;;;5029590;28;20305;-68
2021/01/28 03:23:25;;;;;;;884.33;88.47;;;;;;;;;;5030634;28;20253;-68
2021/01/28 03:26:09;;;;;;;1041.37;90.87;;;;;;;;;;5028808;28;20216;-68
2021/01/28 03:28:54;;;;;;;816.80;81.73;;;;;;;;;;5031799;28;20619;-68
2021/01/28 03:31:39;;;;;;;660.63;77.73;;;;;;;;;;5034394;28;20248;-68
2021/01/28 03:34:23;;;;;;;641.00;73.23;;;;;;;;;;5034353;28;20267;-68
2021/01/28 03:37:08;;;;;;;280.07;52.93;;;;;;;;;;5022626;28;20209;-68
2021/01/28 03:39:52;;;;;;;465.60;66.80;;;;;;;;;;5034193;28;20231;-68
2021/01/28 03:42:37;;;;;;;602.20;70.60;;;;;;;;;;5034131;28;20233;-68
2021/01/28 03:45:22;;;;;;;463.97;65.03;;;;;;;;;;5033887;28;20231;-68
2021/01/28 03:48:08;;;;;;;596.10;72.70;;;;;;;;;;5033564;28;20626;-68
2021/01/28 03:50:52;;;;;;;565.13;73.87;;;;;;;;;;5034043;28;20712;-68
2021/01/28 03:53:37;;;;;;;415.40;66.63;;;;;;;;;;5032980;28;20207;-68
2021/01/28 03:56:21;;;;;;;245.63;54.07;;;;;;;;;;5031238;28;20606;-74
2021/01/28 03:59:06;;;;;;;513.87;65.33;;;;;;;;;;5033856;28;20220;-70
2021/01/28 04:01:50;;;;;;;274.03;55.60;;;;;;;;;;5033528;28;20229;-69
2021/01/28 04:04:36;;;;;;;342.33;62.30;;;;;;;;;;5033547;28;20236;-70
2021/01/28 04:07:20;;;;;;;506.87;67.43;;;;;;;;;;5033308;28;20214;-71
2021/01/28 04:10:06;;;;;;;728.83;79.57;;;;;;;;;;5033479;28;20236;-70
2021/01/28 04:12:50;;;;;;;397.67;62.13;;;;;;;;;;5033346;28;20209;-70
2021/01/28 04:15:35;;;;;;;579.87;70.20;;;;;;;;;;5033659;28;20212;-70
2021/01/28 04:18:20;;;;;;;413.23;58.63;;;;;;;;;;5033065;28;20236;-70
2021/01/28 04:21:05;;;;;;;413.08;69.32;;;;;;;;;;5032900;28;20466;-70
2021/01/28 04:23:49;;;;;;;740.40;82.13;;;;;;;;;;5033318;28;20225;-70
2021/01/28 04:26:35;;;;;;;320.47;56.77;;;;;;;;;;5032780;28;20561;-70
2021/01/28 04:29:19;;;;;;;392.53;58.20;;;;;;;;;;5033481;28;20273;-70
2021/01/28 04:32:04;;;;;;;339.23;50.73;;;;;;;;;;5033557;28;20194;-71
2021/01/28 04:34:48;;;;;;;398.33;51.17;;;;;;;;;;5033249;28;20702;-70
2021/01/28 04:37:34;;;;;;;319.20;52.60;;;;;;;;;;5032732;28;20198;-70
2021/01/28 04:40:25;;;;;;;235.60;42.57;;;;;;;;;;5012561;28;20820;-70
2021/01/28 04:43:21;;;;;;;252.47;40.73;;;;;;;;;;5035736;28;20240;-70
2021/01/28 04:46:06;;;;;;;361.97;38.87;;;;;;;;;;5032407;28;20244;-70
2021/01/28 04:48:51;;;;;;;453.60;42.47;;;;;;;;;;5029723;28;20237;-70
2021/01/28 04:51:36;;;;;;;286.27;40.80;;;;;;;;;;5032964;28;20248;-70
2021/01/28 04:54:23;;;;;;;321.40;44.70;;;;;;;;;;5032861;28;20686;-70
2021/01/28 04:57:10;;;;;;;325.40;45.87;;;;;;;;;;5031729;28;20216;-70
2021/01/28 04:59:55;;;;;;;672.33;64.00;;;;;;;;;;5032383;28;20670;-70
2021/01/28 05:02:40;;;;;;;494.47;61.93;;;;;;;;;;5032701;28;20212;-70
2021/01/28 05:05:24;;;;;;;598.33;68.70;;;;;;;;;;5032366;28;20276;-70
2021/01/28 05:08:08;;;;;;;396.00;56.00;;;;;;;;;;5032009;28;20723;-70
2021/01/28 05:10:55;;;;;;;358.97;59.10;;;;;;;;;;5032333;28;20259;-70
2021/01/28 05:13:39;;;;;;;575.47;66.00;;;;;;;;;;5032281;28;20213;-71
2021/01/28 05:16:25;;;;;;;183.87;46.50;;;;;;;;;;5032008;28;20260;-71
2021/01/28 05:19:12;;;;;;;416.93;57.90;;;;;;;;;;5032007;28;20226;-71
2021/01/28 05:22:04;;;;;;;434.13;62.13;;;;;;;;;;5032152;28;20561;-71
2021/01/28 05:24:49;;;;;;;420.60;59.47;;;;;;;;;;5032056;28;20587;-71
2021/01/28 05:27:35;;;;;;;538.73;64.43;;;;;;;;;;5031866;28;20210;-71
2021/01/28 05:30:35;;;;;;;560.73;61.97;;;;;;;;;;5012670;28;20273;-71
2021/01/28 05:33:28;;;;;;;497.47;60.63;;;;;;;;;;5012465;28;20240;-71
2021/01/28 05:36:17;;;;;;;668.83;74.30;;;;;;;;;;5011962;28;20203;-71
2021/01/28 05:39:15;;;;;;;452.97;62.43;;;;;;;;;;5012155;28;20257;-71
2021/01/28 05:42:05;;;;;;;445.93;59.57;;;;;;;;;;5012314;28;20216;-71
2021/01/28 05:44:50;;;;;;;427.77;57.33;;;;;;;;;;5011977;28;20608;-71
2021/01/28 05:47:35;;;;;;;369.77;53.30;;;;;;;;;;5011722;28;20213;-70
2021/01/28 05:50:21;;;;;;;359.70;52.90;;;;;;;;;;5028525;28;20238;-71
2021/01/28 05:53:09;;;;;;;379.83;50.40;;;;;;;;;;5031378;28;20208;-71
2021/01/28 05:55:54;;;;;;;285.17;47.63;;;;;;;;;;5031317;28;20707;-70
2021/01/28 05:58:41;;;;;;;261.17;48.03;;;;;;;;;;5045756;22;20251;-78
2021/01/28 06:01:34;;;;;;;445.20;55.77;;;;;;;;;;5028191;28;20264;-77
2021/01/28 06:04:32;;;;;;;262.13;45.60;;;;;;;;;;5031428;28;20225;-78
2021/01/28 06:07:25;;;;;;;182.93;42.83;;;;;;;;;;5031020;28;20203;-77
2021/01/28 06:10:20;;;;;;;370.87;47.40;;;;;;;;;;5031481;28;20314;-76
2021/01/28 06:13:10;;;;;;;277.03;47.07;;;;;;;;;;5029600;28;20213;-78
2021/01/28 06:15:59;;;;;;;210.07;41.07;;;;;;;;;;5011421;28;20325;-77
2021/01/28 06:19:17;;;;;;;228.17;38.60;;;;;;;;;;5011641;28;20584;-77
2021/01/28 06:22:03;;;;;;;111.07;36.23;;;;;;;;;;4969170;28;20208;-77
2021/01/28 06:24:51;;;;;;;134.10;33.57;;;;;;;;;;4970049;28;20262;-76
2021/01/28 06:27:52;;;;;;;129.53;33.67;;;;;;;;;;5020775;28;20208;-76
2021/01/28 06:30:42;;;;;;;137.07;32.47;;;;;;;;;;5011596;28;20205;-76
2021/01/28 06:33:30;;;;;;;93.00;28.43;;;;;;;;;;5011374;28;20199;-76
2021/01/28 06:36:28;;;;;;;95.47;28.63;;;;;;;;;;5010927;28;20678;-75
2021/01/28 06:39:18;;;;;;;69.03;26.17;;;;;;;;;;5022198;28;20277;-75
2021/01/28 06:42:06;;;;;;;80.57;27.03;;;;;;;;;;5031102;28;20261;-76
2021/01/28 06:44:54;;;;;;;76.10;24.53;;;;;;;;;;5028388;28;20268;-76
2021/01/28 06:47:41;;;;;;;68.20;23.17;;;;;;;;;;5030481;28;20735;-76
2021/01/28 06:50:29;;;;;;;55.47;20.53;;;;;;;;;;5031020;28;20731;-75
2021/01/28 06:53:15;;;;;;;52.57;20.90;;;;;;;;;;5030996;28;20231;-76
2021/01/28 06:56:02;;;;;;;34.23;15.03;;;;;;;;;;5030473;28;20356;-75
2021/01/28 06:58:53;;;;;;;24.63;13.03;;;;;;;;;;5030759;28;20257;-75
2021/01/28 07:01:40;;;;;;;27.07;12.10;;;;;;;;;;5030867;28;20229;-76
2021/01/28 07:04:28;;;;;;;26.80;13.57;;;;;;;;;;5033359;28;20603;-76
2021/01/28 07:07:14;;;;;;;24.87;12.53;;;;;;;;;;5029812;28;20581;-75
2021/01/28 07:10:00;;;;;;;21.77;11.77;;;;;;;;;;5029557;28;20280;-76
2021/01/28 07:12:47;;;;;;;24.40;12.13;;;;;;;;;;5030586;28;20230;-75
2021/01/28 07:15:32;;;;;;;24.93;12.60;;;;;;;;;;5015011;28;20199;-75
2021/01/28 07:18:22;;;;;;;29.33;13.13;;;;;;;;;;5014740;28;20222;-74
2021/01/28 07:21:11;;;;;;;25.47;12.90;;;;;;;;;;5014963;28;20198;-74
2021/01/28 07:24:00;;;;;;;23.53;12.13;;;;;;;;;;5014521;28;20693;-75
2021/01/28 07:26:45;;;;;;;22.40;11.93;;;;;;;;;;5033141;28;20292;-75
2021/01/28 07:29:38;;;;;;;26.10;12.67;;;;;;;;;;5034566;28;20268;-76
2021/01/28 07:32:41;;;;;;;25.87;14.00;;;;;;;;;;5034557;28;20198;-76
2021/01/28 07:35:42;;;;;;;28.23;15.73;;;;;;;;;;5034392;28;20704;-75
2021/01/28 07:38:45;;;;;;;31.07;14.57;;;;;;;;;;5034331;28;20237;-71
2021/01/28 07:41:31;;;;;;;28.60;13.43;;;;;;;;;;5034213;28;20388;-71
2021/01/28 07:44:43;;;;;;;23.60;12.03;;;;;;;;;;5029094;28;20266;-71
2021/01/28 07:47:48;;;;;;;25.93;12.77;;;;;;;;;;4985200;28;20210;-70
2021/01/28 07:50:38;;;;;;;33.08;19.13;;;;;;;;;;5032743;28;20410;-74
2021/01/28 07:53:35;;;;;;;24.43;13.17;;;;;;;;;;5025155;28;20283;-76
2021/01/28 07:56:38;;;;;;;23.07;12.70;;;;;;;;;;5021609;28;20210;-81
2021/01/28 07:59:30;;;;;;;22.07;11.90;;;;;;;;;;5031662;28;20229;-79
2021/01/28 08:02:17;;;;;;;19.63;10.33;;;;;;;;;;5021805;28;20257;-79
2021/01/28 08:05:07;;;;;;;17.93;10.67;;;;;;;;;;5033435;28;20272;-75
2021/01/28 08:08:04;;;;;;;19.10;10.30;;;;;;;;;;5033114;28;20213;-75
2021/01/28 08:10:48;;;;;;;22.83;10.90;;;;;;;;;;5013876;28;20286;-75
2021/01/28 08:13:33;;;;;;;17.27;9.27;;;;;;;;;;5013721;28;20210;-74
2021/01/28 08:16:18;;;;;;;16.93;10.23;;;;;;;;;;5012068;28;20713;-75
2021/01/28 08:19:05;;;;;;;20.00;9.63;;;;;;;;;;5013584;28;20226;-75
2021/01/28 08:22:01;;;;;;;16.30;9.50;;;;;;;;;;5013722;28;20218;-76
2021/01/28 08:24:54;;;;;;;14.30;9.10;;;;;;;;;;5013419;28;20238;-77
2021/01/28 08:27:39;;;;;;;13.83;9.27;;;;;;;;;;5032931;28;20727;-81
2021/01/28 08:30:24;;;;;;;18.70;10.70;;;;;;;;;;5032521;28;20210;-80
2021/01/28 08:33:11;;;;;;;20.87;10.67;;;;;;;;;;5027216;28;20696;-76
2021/01/28 08:35:57;;;;;;;17.53;9.17;;;;;;;;;;5021196;28;20215;-75
2021/01/28 08:38:41;;;;;;;13.23;8.07;;;;;;;;;;5030696;28;20726;-72
2021/01/28 08:41:28;;;;;;;15.73;9.00;;;;;;;;;;5032976;28;20206;-72
2021/01/28 08:44:14;;;;;;;16.57;9.87;;;;;;;;;;5032705;28;20699;-73
2021/01/28 08:47:07;;;;;;;15.83;9.70;;;;;;;;;;5032392;28;20206;-72
2021/01/28 08:49:59;;;;;;;15.37;9.37;;;;;;;;;;5026835;28;20273;-77
2021/01/28 08:52:44;;;;;;;17.07;9.30;;;;;;;;;;5028232;28;20771;-77
2021/01/28 08:55:31;;;;;;;14.97;8.77;;;;;;;;;;5032665;28;20204;-78
2021/01/28 08:58:19;;;;;;;18.30;9.57;;;;;;;;;;5031367;28;20225;-76
2021/01/28 09:01:05;;;;;;;14.27;8.83;;;;;;;;;;5032565;28;20295;-77
2021/01/28 09:03:53;;;;;;;16.50;9.73;;;;;;;;;;5032526;28;20256;-78
2021/01/28 09:06:42;;;;;;;16.13;9.77;;;;;;;;;;5032131;28;20723;-80
2021/01/28 09:09:28;;;;;;;15.70;9.07;;;;;;;;;;5032491;28;20233;-77
2021/01/28 09:12:21;;;;;;;16.50;9.23;;;;;;;;;;5031514;28;20305;-74
2021/01/28 09:15:10;;;;;;;13.53;9.27;;;;;;;;;;5031943;28;20577;-76
2021/01/28 09:18:03;;;;;;;20.30;10.10;;;;;;;;;;5028321;28;20261;-76
2021/01/28 09:20:48;;;;;;;12.63;9.20;;;;;;;;;;5032257;28;20720;-75
2021/01/28 09:23:32;;;;;;;13.20;9.17;;;;;;;;;;5032269;28;20206;-77
2021/01/28 09:26:21;;;;;;;15.20;9.07;;;;;;;;;;5031087;28;20214;-77
2021/01/28 09:29:09;;;;;;;14.57;9.30;;;;;;;;;;5031252;28;20291;-77
2021/01/28 09:32:04;;;;;;;19.20;13.50;;;;;;;;;;5031136;28;20418;-80
2021/01/28 09:35:02;;;;;;;16.30;10.50;;;;;;;;;;5031874;28;20599;-76
2021/01/28 09:37:48;;;;;;;17.27;9.90;;;;;;;;;;5031658;28;20233;-82
2021/01/28 09:40:35;;;;;;;15.20;8.87;;;;;;;;;;5031898;28;20209;-82
2021/01/28 09:43:27;;;;;;;10.00;8.13;;;;;;;;;;5030483;28;20198;-82
2021/01/28 09:46:15;;;;;;;13.50;9.07;;;;;;;;;;5028274;28;20248;-81
2021/01/28 09:49:02;;;;;;;13.47;9.30;;;;;;;;;;5031651;28;20225;-79
2021/01/28 09:51:46;;;;;;;14.87;10.13;;;;;;;;;;5031864;28;20201;-82
2021/01/28 09:54:34;;;;;;;16.80;10.60;;;;;;;;;;5031478;28;20675;-82
2021/01/28 09:57:18;;;;;;;13.57;10.63;;;;;;;;;;5027159;28;20585;-79
2021/01/28 10:00:04;;;;;;;13.27;10.17;;;;;;;;;;5031112;28;20261;-78
2021/01/28 10:02:51;;;;;;;14.40;11.10;;;;;;;;;;5031328;28;20257;-76
2021/01/28 10:05:37;;;;;;;14.83;11.77;;;;;;;;;;5022590;28;20704;-78
2021/01/28 10:08:21;;;;;;;13.30;10.37;;;;;;;;;;5026869;28;20705;-78
2021/01/28 10:11:07;;;;;;;16.37;12.07;;;;;;;;;;5024348;28;20342;-78
2021/01/28 10:13:51;;;;;;;14.73;11.63;;;;;;;;;;5011326;28;20555;-79
2021/01/28 10:16:36;;;;;;;13.67;11.40;;;;;;;;;;5017938;28;20241;-83
2021/01/28 10:19:20;;;;;;;18.27;12.80;;;;;;;;;;5027195;28;20222;-86
2021/01/28 10:22:05;;;;;;;16.03;12.60;;;;;;;;;;5026495;28;20238;-80
2021/01/28 10:24:50;;;;;;;14.67;11.47;;;;;;;;;;5011374;28;20300;-81
2021/01/28 10:27:34;;;;;;;14.50;12.17;;;;;;;;;;5010989;28;20226;-81
2021/01/28 10:30:20;;;;;;;16.27;12.40;;;;;;;;;;5018403;28;20212;-75
2021/01/28 10:33:04;;;;;;;14.20;11.87;;;;;;;;;;5030315;28;20611;-78
2021/01/28 10:35:48;;;;;;;13.80;12.30;;;;;;;;;;5011103;28;20573;-78
2021/01/28 10:38:35;;;;;;;16.03;12.80;;;;;;;;;;5010676;28;20647;-79
2021/01/28 10:41:19;;;;;;;14.50;12.77;;;;;;;;;;5011234;28;20261;-80
2021/01/28 10:44:04;;;;;;;14.77;12.73;;;;;;;;;;5011200;28;20211;-78
2021/01/28 10:46:48;;;;;;;13.17;11.37;;;;;;;;;;5010918;28;20198;-78
2021/01/28 10:49:32;;;;;;;14.47;11.80;;;;;;;;;;5011143;28;20242;-78
2021/01/28 10:52:17;;;;;;;15.33;12.63;;;;;;;;;;5011311;28;20198;-78
2021/01/28 10:55:03;;;;;;;13.47;11.67;;;;;;;;;;5011629;28;20205;-78
2021/01/28 10:57:47;;;;;;;14.03;11.43;;;;;;;;;;5028961;28;20229;-78
2021/01/28 11:00:32;;;;;;;13.57;12.00;;;;;;;;;;5030872;28;20221;-78
2021/01/28 11:03:17;;;;;;;12.17;10.87;;;;;;;;;;5030942;28;20556;-79
2021/01/28 11:06:01;;;;;;;12.90;11.50;;;;;;;;;;5028311;28;20246;-78
2021/01/28 11:08:46;;;;;;;13.20;11.73;;;;;;;;;;5030825;28;20261;-78
2021/01/28 11:11:31;;;;;;;14.77;12.27;;;;;;;;;;5030630;28;20205;-78
2021/01/28 11:14:16;;;;;;;14.23;12.73;;;;;;;;;;5030041;28;20431;-78
2021/01/28 11:17:00;;;;;;;15.30;11.90;;;;;;;;;;5018269;28;20261;-78
2021/01/28 11:19:44;;;;;;;13.43;11.30;;;;;;;;;;5030779;28;20241;-78
2021/01/28 11:22:29;;;;;;;14.37;12.87;;;;;;;;;;5026817;28;20287;-78
2021/01/28 11:25:14;;;;;;;15.43;12.23;;;;;;;;;;5030384;28;20229;-79
2021/01/28 11:28:00;;;;;;;15.00;13.27;;;;;;;;;;5029173;28;20226;-78
2021/01/28 11:30:45;;;;;;;16.63;14.87;;;;;;;;;;5029790;28;20560;-77
2021/01/28 11:33:29;;;;;;;19.47;17.37;;;;;;;;;;5030336;28;20199;-79
2021/01/28 11:36:13;;;;;;;20.90;18.27;;;;;;;;;;5021828;28;20977;-75
2021/01/28 11:38:58;;;;;;;20.80;18.53;;;;;;;;;;5028159;28;20325;-76
2021/01/28 11:41:43;;;;;;;21.53;17.77;;;;;;;;;;5010485;28;20206;-75
2021/01/28 11:44:28;;;;;;;20.90;18.07;;;;;;;;;;5022154;28;20346;-76
2021/01/28 11:47:12;;;;;;;20.73;17.83;;;;;;;;;;5029912;28;20206;-72
2021/01/28 11:49:57;;;;;;;20.93;17.77;;;;;;;;;;5031634;28;20202;-74
2021/01/28 11:52:42;;;;;;;22.10;18.37;;;;;;;;;;5025230;28;20849;-72
2021/01/28 11:55:28;;;;;;;20.00;17.90;;;;;;;;;;5018854;28;20206;-71
2021/01/28 11:58:12;;;;;;;19.33;17.23;;;;;;;;;;5024606;28;20226;-71
2021/01/28 12:00:57;;;;;;;20.27;18.27;;;;;;;;;;5014135;28;20219;-74
2021/01/28 12:03:42;;;;;;;19.63;17.57;;;;;;;;;;5032977;28;20205;-76
2021/01/28 12:06:26;;;;;;;20.37;17.77;;;;;;;;;;5017360;28;20678;-76
2021/01/28 12:09:11;;;;;;;17.97;16.17;;;;;;;;;;5018528;28;20340;-77
2021/01/28 12:11:55;;;;;;;17.30;15.60;;;;;;;;;;5033438;28;20585;-79
2021/01/28 12:14:40;;;;;;;18.43;16.53;;;;;;;;;;5033547;28;20205;-79
2021/01/28 12:17:25;;;;;;;16.37;14.77;;;;;;;;;;5032864;28;20573;-76
2021/01/28 12:20:10;;;;;;;18.27;16.73;;;;;;;;;;5032156;28;20616;-77
2021/01/28 12:22:55;;;;;;;14.10;12.80;;;;;;;;;;5033291;28;20253;-79
2021/01/28 12:25:39;;;;;;;12.00;10.73;;;;;;;;;;5032965;28;20272;-76
2021/01/28 12:28:24;;;;;;;12.27;11.13;;;;;;;;;;5032908;28;20249;-79
2021/01/28 12:31:11;;;;;;;13.57;12.13;;;;;;;;;;5013884;28;20213;-78
2021/01/28 12:33:56;;;;;;;12.07;10.97;;;;;;;;;;5013478;28;20616;-76
2021/01/28 12:36:40;;;;;;;13.93;12.53;;;;;;;;;;5012752;28;20206;-74
2021/01/28 12:39:25;;;;;;;13.03;11.77;;;;;;;;;;5013063;28;20360;-77
2021/01/28 12:42:10;;;;;;;10.90;9.90;;;;;;;;;;5013027;28;20225;-77
2021/01/28 12:44:54;;;;;;;11.50;10.40;;;;;;;;;;5021906;28;20237;-74
2021/01/28 12:47:39;;;;;;;12.80;11.50;;;;;;;;;;5019384;28;20222;-74
2021/01/28 12:50:24;;;;;;;11.20;10.10;;;;;;;;;;5032920;28;20234;-74
2021/01/28 12:53:09;;;;;;;10.53;9.63;;;;;;;;;;5045996;22;20333;-71
2021/01/28 12:55:53;;;;;;;9.63;8.83;;;;;;;;;;5032783;28;20213;-68
2021/01/28 12:58:38;;;;;;;11.30;10.30;;;;;;;;;;5028342;28;20222;-69
2021/01/28 13:01:22;;;;;;;14.25;13.05;;;;;;;;;;4992128;28;20399;-69
2021/01/28 13:04:07;;;;;;;10.33;9.43;;;;;;;;;;4993185;28;20208;-69
2021/01/28 13:06:52;;;;;;;10.77;9.77;;;;;;;;;;5001025;28;20573;-71
2021/01/28 13:09:36;;;;;;;9.47;8.57;;;;;;;;;;5010852;28;20206;-70
2021/01/28 13:12:21;;;;;;;10.33;9.43;;;;;;;;;;5009967;28;20327;-70
2021/01/28 13:15:07;;;;;;;12.07;10.97;;;;;;;;;;5007326;28;20233;-70
2021/01/28 13:17:52;;;;;;;14.50;13.07;;;;;;;;;;5012120;28;20230;-70
2021/01/28 13:20:36;;;;;;;11.87;10.77;;;;;;;;;;5011005;28;20218;-70
2021/01/28 13:23:21;;;;;;;11.63;10.53;;;;;;;;;;5011298;28;20195;-69
2021/01/28 13:26:06;;;;;;;10.60;9.60;;;;;;;;;;5010474;28;20709;-69
2021/01/28 13:28:51;;;;;;;15.60;13.63;;;;;;;;;;5012280;28;20281;-69
2021/01/28 13:31:35;;;;;;;17.50;15.70;;;;;;;;;;5002012;28;20223;-69
2021/01/28 13:34:19;;;;;;;12.43;11.13;;;;;;;;;;4992341;28;20235;-69
2021/01/28 13:37:04;;;;;;;12.83;11.53;;;;;;;;;;5012974;28;20221;-70
2021/01/28 13:39:49;;;;;;;10.37;9.43;;;;;;;;;;5031636;28;20221;-70
2021/01/28 13:42:34;;;;;;;14.20;12.90;;;;;;;;;;5023405;28;20206;-70
2021/01/28 13:45:20;;;;;;;10.90;9.83;;;;;;;;;;5008511;28;20251;-71
2021/01/28 13:48:05;;;;;;;10.50;9.60;;;;;;;;;;5008619;28;20721;-69
2021/01/28 13:50:50;;;;;;;9.73;8.83;;;;;;;;;;5009930;28;20257;-68
2021/01/28 13:53:35;;;;;;;12.07;10.93;;;;;;;;;;5011124;28;20274;-71
2021/01/28 13:56:20;;;;;;;12.83;11.43;;;;;;;;;;5010580;28;20203;-68
2021/01/28 13:59:05;;;;;;;10.97;9.87;;;;;;;;;;4995929;28;20242;-69
2021/01/28 14:01:49;;;;;;;11.83;10.77;;;;;;;;;;5004818;28;20287;-68
2021/01/28 14:04:34;;;;;;;14.38;13.18;;;;;;;;;;5008906;28;20454;-69
2021/01/28 14:07:19;;;;;;;12.33;11.23;;;;;;;;;;4991739;28;20298;-69
2021/01/28 14:10:04;;;;;;;13.53;12.23;;;;;;;;;;4992096;28;20207;-69
2021/01/28 14:12:49;;;;;;;12.10;11.00;;;;;;;;;;4991408;28;20682;-71
2021/01/28 14:15:34;;;;;;;10.13;9.20;;;;;;;;;;4991765;28;20203;-71
2021/01/28 14:18:20;;;;;;;10.80;9.80;;;;;;;;;;5000802;28;20761;-67
2021/01/28 14:21:04;;;;;;;8.23;7.53;;;;;;;;;;5002562;28;20247;-71
2021/01/28 14:23:49;;;;;;;8.97;8.17;;;;;;;;;;5005816;28;20225;-69
2021/01/28 14:26:33;;;;;;;8.07;7.27;;;;;;;;;;5009670;28;20250;-68
2021/01/28 14:29:19;;;;;;;9.87;8.97;;;;;;;;;;5011554;28;20269;-69
2021/01/28 14:32:03;;;;;;;9.10;7.90;;;;;;;;;;5010505;28;20206;-69
2021/01/28 14:34:48;;;;;;;8.57;7.87;;;;;;;;;;5011276;28;20344;-67
2021/01/28 14:37:33;;;;;;;8.20;7.50;;;;;;;;;;5010722;28;20234;-67
2021/01/28 14:40:18;;;;;;;8.53;7.83;;;;;;;;;;5010392;28;20358;-70
2021/01/28 14:43:03;;;;;;;7.70;7.00;;;;;;;;;;5009219;28;20218;-69
2021/01/28 14:45:49;;;;;;;8.52;7.82;;;;;;;;;;5010706;28;20823;-69
2021/01/28 14:48:34;;;;;;;6.70;6.10;;;;;;;;;;4997457;28;20757;-69
2021/01/28 14:51:18;;;;;;;6.80;6.10;;;;;;;;;;4991330;28;20947;-69
2021/01/28 14:54:03;;;;;;;6.70;6.20;;;;;;;;;;4991395;28;20975;-69
2021/01/28 14:56:47;;;;;;;8.03;7.33;;;;;;;;;;4991035;28;20698;-69
2021/01/28 14:59:31;;;;;;;7.07;6.47;;;;;;;;;;4995272;28;20678;-69
2021/01/28 15:02:17;;;;;;;6.03;5.50;;;;;;;;;;5011062;28;20214;-70
2021/01/28 15:05:01;;;;;;;6.07;5.57;;;;;;;;;;5010924;28;20222;-70
2021/01/28 15:07:46;;;;;;;6.57;5.97;;;;;;;;;;5009350;28;20223;-70
2021/01/28 15:10:30;;;;;;;7.03;6.43;;;;;;;;;;4991479;28;20206;-71
2021/01/28 15:13:15;;;;;;;6.90;6.30;;;;;;;;;;4991249;28;20207;-70
2021/01/28 15:15:59;;;;;;;7.10;6.50;;;;;;;;;;4995268;28;20202;-73
2021/01/28 15:18:45;;;;;;;7.20;6.60;;;;;;;;;;4996701;28;20235;-71
2021/01/28 15:21:29;;;;;;;7.30;6.70;;;;;;;;;;5005031;28;20226;-73
2021/01/28 15:24:14;;;;;;;7.50;6.80;;;;;;;;;;4991183;28;20219;-71
2021/01/28 15:26:58;;;;;;;7.33;6.73;;;;;;;;;;5013560;28;20280;-74
2021/01/28 15:29:43;;;;;;;7.20;6.60;;;;;;;;;;5014409;28;20202;-71
2021/01/28 15:32:27;;;;;;;7.27;6.67;;;;;;;;;;5011023;28;20607;-68
2021/01/28 15:35:13;;;;;;;7.17;6.53;;;;;;;;;;4995874;28;20211;-70
2021/01/28 15:37:58;;;;;;;7.43;6.83;;;;;;;;;;5011349;28;20235;-73
2021/01/28 15:40:42;;;;;;;8.13;7.43;;;;;;;;;;5014718;28;20530;-72
2021/01/28 15:43:27;;;;;;;9.23;8.33;;;;;;;;;;5010804;28;20211;-74
2021/01/28 15:46:11;;;;;;;8.67;7.97;;;;;;;;;;5005043;28;20230;-75
2021/01/28 15:48:56;;;;;;;8.17;7.53;;;;;;;;;;5013646;28;20569;-73
2021/01/28 15:51:44;;;;;;;8.80;8.00;;;;;;;;;;5005149;28;20619;-73
2021/01/28 15:54:28;;;;;;;9.17;8.37;;;;;;;;;;5010485;28;20688;-73
2021/01/28 15:57:13;;;;;;;7.77;7.13;;;;;;;;;;5011473;28;20246;-74
2021/01/28 15:59:57;;;;;;;8.70;8.00;;;;;;;;;;5013971;28;20273;-74
2021/01/28 16:02:42;;;;;;;8.90;8.10;;;;;;;;;;5012146;28;20257;-73
2021/01/28 16:05:26;;;;;;;9.30;8.50;;;;;;;;;;5012896;28;20697;-74
2021/01/28 16:08:12;;;;;;;8.33;7.63;;;;;;;;;;5000813;28;20227;-74